Antonio Narino Airport


Codes: SKPS/PSO
Name: Antonio Narino Airport
City: Pasto
Country: Colombia
Elevation: 5951 ft.

Photos at Antonio Narino Airport


   Photos courtesy of SpottingLog. You can add your own sightings and photos by signing up for a free trial today.



No photos found.

Weather at Antonio Narino Airport


Time (UTC)DescriptionTempratureWindCloud coverageVisibilityPressureHumidity
16-Jun-2024 12:00Moderate Rain15°C2 mph, SE100%10000m1016hPa95%
16-Jun-2024 15:00Light Rain17°C2 mph, E100%10000m1017hPa89%
16-Jun-2024 18:00Light Rain17°C2 mph, SE100%10000m1016hPa89%
16-Jun-2024 21:00Light Rain18°C2 mph, E100%10000m1015hPa84%
17-Jun-2024 00:00Light Rain16°C2 mph, SE100%10000m1016hPa91%
17-Jun-2024 03:00Overcast Clouds16°C4 mph, SE100%10000m1017hPa87%
17-Jun-2024 06:00Overcast Clouds15°C7 mph, SE100%10000m1016hPa86%
17-Jun-2024 09:00Overcast Clouds15°C7 mph, SE100%10000m1015hPa82%
17-Jun-2024 12:00Overcast Clouds16°C4 mph, SE99%10000m1016hPa80%
17-Jun-2024 15:00Light Rain18°C4 mph, SE99%10000m1016hPa75%
17-Jun-2024 18:00Light Rain19°C4 mph, SE99%10000m1014hPa71%
17-Jun-2024 21:00Scattered Clouds24°C2 mph, N27%10000m1009hPa49%
18-Jun-2024 00:00Light Rain16°C2 mph, S33%10000m1014hPa90%
18-Jun-2024 03:00Light Rain15°C4 mph, S76%10000m1017hPa85%
18-Jun-2024 06:00Broken Clouds14°C4 mph, SE72%10000m1016hPa79%
18-Jun-2024 09:00Broken Clouds13°C4 mph, SE56%10000m1016hPa74%
18-Jun-2024 12:00Scattered Clouds15°C4 mph, SE48%10000m1016hPa70%
18-Jun-2024 15:00Few Clouds21°C4 mph, N18%10000m1014hPa54%
18-Jun-2024 18:00Light Rain23°C7 mph, NW27%10000m1012hPa59%
18-Jun-2024 21:00Light Rain20°C4 mph, NW75%10000m1010hPa75%
19-Jun-2024 00:00Light Rain17°C0 mph, NW86%10000m1013hPa94%
19-Jun-2024 03:00Light Rain17°C0 mph, SE100%10000m1015hPa95%
19-Jun-2024 06:00Light Rain16°C0 mph, SE100%10000m1014hPa96%
19-Jun-2024 09:00Light Rain16°C2 mph, SE99%10000m1014hPa95%
19-Jun-2024 12:00Light Rain17°C2 mph, SE99%10000m1014hPa91%
19-Jun-2024 15:00Light Rain18°C2 mph, E99%10000m1015hPa86%
19-Jun-2024 18:00Light Rain21°C4 mph, NW92%9987m1011hPa76%
19-Jun-2024 21:00Moderate Rain19°C2 mph, NW88%10000m1010hPa88%
20-Jun-2024 00:00Moderate Rain17°C2 mph, NW94%4305m1013hPa96%
20-Jun-2024 03:00Moderate Rain17°C2 mph, SE100%10000m1015hPa93%
20-Jun-2024 06:00Light Rain16°C2 mph, S100%10000m1014hPa93%
20-Jun-2024 09:00Light Rain16°C2 mph, S100%10000m1013hPa92%
20-Jun-2024 12:00Light Rain16°C2 mph, SE100%10000m1014hPa92%
20-Jun-2024 15:00Light Rain18°C2 mph, NE100%10000m1016hPa87%
20-Jun-2024 18:00Light Rain17°C2 mph, NE100%10000m1014hPa89%
20-Jun-2024 21:00Light Rain18°C0 mph, SE100%10000m1013hPa87%
21-Jun-2024 00:00Light Rain16°C2 mph, SE100%10000m1014hPa92%
21-Jun-2024 03:00Light Rain16°C4 mph, SE99%10000m1017hPa90%
21-Jun-2024 06:00Light Rain16°C4 mph, SE100%10000m1016hPa88%
21-Jun-2024 09:00Light Rain15°C4 mph, SE100%10000m1014hPa88%